Tiempo atmosférico en la estación meteorológica de Vejer De La Frontera, Cádiz (160 m.)



Fecha
DESCASC
Temp. máxima en grados centígrados (hora)
DESCASC
Temp. mínima en grados centígrados (hora)
DESCASC
Temp. media en grados centígrados
DESCASC
Racha de viento máxima en m/sg (hora)
DESCASC
Velocidad máxima media en intervalos de 10 minutos(hora)
DESCASC
Precipitaciones diarias en mm
DESCASC
Precipitaciones de 00:00 a 06:00 en mm
DESCASC
Precipitaciones de 06:00 a 12:00 en mm
DESCASC
Precipitaciones de 12:00 a 18:00 en mm
DESCASC
Precipitaciones de 18:00 a 24:00 en mm
DESCASC
21-02-2019 17.4 (13:40) 10.9 (07:20) 14.1 14.72 (11:30) 6.94 (06:00) 0 0 0 0 0
20-02-2019 17.6 (14:40) 9.8 (05:40) 13.7 12.5 (14:40) 6.11 (23:10) 0 0 0 0 0
19-02-2019 18 (15:50) 9.3 (08:00) 13.7 7.78 (17:10) 3.89 (02:00) 0.2 0.2 0 0 0
18-02-2019 15.6 (13:30) 11.1 (00:10) 13.4 10.83 (00:50) 4.72 (13:50) 2.5 0 0 0 2.5
17-02-2019 18.2 (14:20) 10.7 (00:00) 14.5 11.67 (17:00) 5.83 (12:50) 0 0 0 0 0
16-02-2019 16.9 (14:50) 11.7 (00:00) 14.3 18.61 (12:10) 8.61 (11:20) 0 0 0 0 0
15-02-2019 16.1 (13:20) 11.1 (00:00) 13.6 18.89 (17:20) 7.78 (17:30) 0 0 0 0 0
14-02-2019 16.4 (14:20) 10.8 (00:00) 13.6 16.11 (14:00) 7.78 (13:30) 0 0 0 0 0
13-02-2019 16.2 (14:20) 10.8 (00:00) 13.5 13.61 (12:40) 6.39 (17:00) 0 0 0 0 0
12-02-2019 16.3 (12:30) 9.6 (00:00) 12.9 16.67 (12:50) 6.94 (12:30) 0 0 0 0 0
11-02-2019 17.9 (15:40) 10.9 (00:00) 14.4 7.5 (16:20) 4.72 (16:30) 0 0 0 0 0
10-02-2019 16.7 (14:30) 10.1 (00:00) 13.4 7.78 (16:00) 4.17 (16:00) 0 0 0 0 0
09-02-2019 16.9 (16:20) 8.5 (00:00) 12.7 5.83 (15:30) 3.33 (18:30) 0 0 0 0 0
08-02-2019 17.2 (15:40) 9.7 (00:00) 13.5 5.83 (16:50) 3.33 (14:20) 0 0 0 0 0
07-02-2019 18.5 (14:20) 11.2 (00:00) 14.8 6.39 (21:20) 3.89 (17:50) 0 0 0 0 0
06-02-2019 20.9 (14:30) 10 (00:00) 15.4 5.56 (12:20) 3.33 (17:40) 0 0 0 0 0
05-02-2019 18.9 (14:00) 8.1 (00:00) 13.5 5.28 (14:50) 3.06 (14:50) 0 0 0 0 0
04-02-2019 17.6 (15:40) 4.1 (00:00) 10.9 7.5 (00:10) 3.89 (00:20) 0 0 0 0 0
03-02-2019 13 (14:50) 5.5 (00:00) 9.3 6.67 (16:00) 3.89 (19:00) 0 0 0 0 0
02-02-2019 12.5 (15:30) 8 (00:00) 10.3 15.28 (14:50) 8.06 (14:00) 0 0 0 0 0
01-02-2019 14.2 (15:00) 9.8 (00:00) 12 23.61 (04:30) 12.78 (04:30) -- -- -- -- --
31-01-2019 14.9 (16:40) 11.8 (00:00) 13.3 17.22 (23:00) 10.56 (23:20) 3.6 1.9 0.7 0 1
30-01-2019 14.6 (12:50) 11.1 (00:00) 12.9 11.94 (18:40) 5.83 (18:40) 7.6 0 1.4 0.1 6.1
29-01-2019 14.1 (12:10) 10.1 (00:00) 12.1 10.83 (11:00) 5.28 (04:00) 0 0 0 0 0
28-01-2019 14.1 (13:50) 7.2 (00:00) 10.7 12.22 (17:40) 6.11 (17:40) 0 0 0 0 0
27-01-2019 14.4 (16:20) 10.6 (00:00) 12.5 12.78 (17:20) 6.39 (17:20) 0 0 0 0 0
26-01-2019 19.1 (14:40) 10.4 (00:00) 14.8 7.22 (17:00) 4.17 (16:50) 0 0 0 0 0
25-01-2019 20.5 (16:00) 10.1 (00:00) 15.3 5.83 (15:20) 3.33 (00:20) 0 0 0 0 0
24-01-2019 17.2 (14:20) 11.3 (00:00) 14.3 11.39 (00:40) 6.11 (01:10) 0 0 0 0 0

Gráficas

Temp. máximas Temp. mínimas Temp. medias Precipitaciones Rachas de viento máximas Velocidades máximas media en intervalos de 10 minutos

Datos horarios

Fecha y hora oficial Temperatura (ºC) Velocidad del viento (km/h) Dirección del viento Racha (km/h) Dirección de racha Precipitación (mm) Presión (hPa) Tendencia (hPa) Humedad (%)
2019-02-22 23:00:00 11.1 6 Nordeste 12 Nordeste 0 -- -- 66
2019-02-22 22:00:00 11.5 5 Este 17 Sudeste 0 -- -- 60
2019-02-22 21:00:00 12.2 9 Este 23 Este 0 -- -- 52
2019-02-22 20:00:00 12.7 12 Este 29 Este 0 -- -- 49
2019-02-22 19:00:00 13.7 14 Este 33 Este 0 -- -- 52
2019-02-22 18:00:00 15 13 Este 34 Este 0 -- -- 55
2019-02-22 17:00:00 16.4 15 Este 36 Sudeste 0 -- -- 55
2019-02-22 16:00:00 17.4 14 Este 35 Este 0 -- -- 54
2019-02-22 15:00:00 17.7 14 Este 38 Este 0 -- -- 54
2019-02-22 14:00:00 17.8 17 Este 40 Este 0 -- -- 53
2019-02-22 13:00:00 17.3 17 Este 37 Este 0 -- -- 54
2019-02-22 12:00:00 16.1 17 Este 40 Este 0 -- -- 60
2019-02-22 11:00:00 15.3 18 Este 47 Este 0 -- -- 67
2019-02-22 10:00:00 13.7 18 Este 38 Este 0 -- -- 71
2019-02-22 09:00:00 12 12 Este 36 Este 0 -- -- 77
2019-02-22 08:00:00 10.9 13 Este 31 Este 0 -- -- 83
2019-02-22 07:00:00 10.8 13 Este 29 Este 0 -- -- 88
2019-02-22 06:00:00 11 12 Este 33 Este 0 -- -- 85
2019-02-22 05:00:00 10.9 19 Este 33 Este 0 -- -- 84
2019-02-22 04:00:00 11.4 19 Este 36 Este 0 -- -- 83
2019-02-22 03:00:00 11.3 16 Este 36 Este 0 -- -- 83
2019-02-22 02:00:00 11.4 18 Este 36 Este 0 -- -- 83
2019-02-22 01:00:00 11.5 15 Este 37 Este 0 -- -- 83
2019-02-22 00:00:00 11.5 16 Este 39 Este 0 -- -- 82
2019-02-21 23:00:00 11.7 17 Este 39 Este 0 -- -- 82
2019-02-21 22:00:00 11.6 15 Este 36 Este 0 -- -- 81
2019-02-21 21:00:00 11.5 15 Este 33 Este 0 -- -- 82
2019-02-21 20:00:00 11.9 17 Este 36 Este 0 -- -- 79
2019-02-21 19:00:00 12.7 14 Este 41 Este 0 -- -- 73
2019-02-21 18:00:00 14 18 Este 41 Este 0 -- -- 67
2019-02-21 17:00:00 15.4 16 Este 44 Este 0 -- -- 63
2019-02-21 16:00:00 16.5 17 Este 41 Sudeste 0 -- -- 61
2019-02-21 15:00:00 16.9 17 Este 49 Sudeste 0 -- -- 59
2019-02-21 14:00:00 16.7 22 Este 50 Este 0 -- -- 60
2019-02-21 13:00:00 16.6 22 Este 48 Este 0 -- -- 64
2019-02-21 12:00:00 15.6 22 Este 53 Este 0 -- -- 66
2019-02-21 11:00:00 14.8 19 Este 42 Este 0 -- -- 70
2019-02-21 10:00:00 13.7 16 Este 36 Este 0 -- -- 72
2019-02-21 09:00:00 11.9 15 Este 36 Sudeste 0 -- -- 78
2019-02-21 08:00:00 11 15 Este 40 Este 0 -- -- 79
2019-02-21 07:00:00 11.4 22 Este 46 Este 0 -- -- 77
2019-02-21 06:00:00 11.5 25 Este 45 Este 0 -- -- 76
2019-02-21 05:00:00 11.4 16 Este 31 Este 0 -- -- 77
2019-02-21 04:00:00 11.6 13 Este 41 Este 0 -- -- 77
2019-02-21 03:00:00 11.9 18 Este 44 Este 0 -- -- 77
2019-02-21 02:00:00 11.9 13 Este 38 Este 0 -- -- 79
2019-02-21 01:00:00 11.5 19 Este 38 Este 0 -- -- 79
2019-02-21 00:00:00 11.6 20 Este 43 Este 0 -- -- 79
2019-02-20 23:00:00 11.6 21 Este 41 Este 0 -- -- 80
2019-02-20 22:00:00 11.4 15 Este 33 Este 0 -- -- 83
2019-02-20 21:00:00 11.4 12 Este 28 Este 0 -- -- 84
2019-02-20 20:00:00 11.6 12 Este 29 Este 0 -- -- 80
2019-02-20 19:00:00 12.5 10 Este 28 Este 0 -- -- 74
2019-02-20 18:00:00 13.9 15 Este 34 Este 0 -- -- 66
2019-02-20 17:00:00 15.3 15 Este 41 Este 0 -- -- 62
2019-02-20 16:00:00 14.9 18 Este 41 Este 0 -- -- 61
2019-02-20 15:00:00 15.9 14 Este 45 Este 0 -- -- 61
2019-02-20 14:00:00 16.7 17 Este 43 Sudeste 0 -- -- 58
2019-02-20 13:00:00 16.1 22 Este 45 Este 0 -- -- 60
2019-02-20 12:00:00 16.1 18 Este 41 Este 0 -- -- 61
2019-02-20 11:00:00 14.6 18 Este 34 Este 0 -- -- 65
2019-02-20 10:00:00 13.3 11 Este 28 Este 0 -- -- 75
2019-02-20 09:00:00 11.5 15 Este 31 Este 0 -- -- 80
2019-02-20 08:00:00 10.9 13 Este 27 Sudeste 0 -- -- 84
2019-02-20 07:00:00 10.7 13 Este 26 Este 0 -- -- 84
2019-02-20 06:00:00 9.8 9 Este 23 Este 0 -- -- 86
2019-02-20 05:00:00 10.2 10 Este 26 Este 0 -- -- 86
2019-02-20 04:00:00 10.3 9 Este 29 Este 0 -- -- 85
2019-02-20 03:00:00 10.7 12 Este 25 Este 0 -- -- 85
2019-02-20 02:00:00 11 13 Este 25 Este 0 -- -- 84
2019-02-20 01:00:00 10.9 9 Este 20 Este 0 -- -- 86
2019-02-20 00:00:00 10.8 9 Nordeste 19 Nordeste 0 -- -- 88
2019-02-19 23:00:00 10.8 5 Nordeste 18 Este 0 -- -- 87
2019-02-19 22:00:00 10.9 8 Este 18 Este 0 -- -- 85
2019-02-19 21:00:00 11.2 8 Este 22 Este 0 -- -- 80
2019-02-19 20:00:00 12.1 8 Este 18 Este 0 -- -- 73
2019-02-19 19:00:00 12.6 9 Este 26 Este 0 -- -- 70
2019-02-19 18:00:00 14.5 10 Este 28 Este 0 -- -- 59
2019-02-19 17:00:00 15.9 10 Este 28 Este 0 -- -- 55
2019-02-19 16:00:00 17 8 Este 23 Sudeste 0 -- -- 53
2019-02-19 15:00:00 16.5 8 Este 22 Este 0 -- -- 55
2019-02-19 14:00:00 16.4 9 Este 24 Este 0 -- -- 56
2019-02-19 13:00:00 15.1 9 Este 23 Este 0 -- -- 66
2019-02-19 12:00:00 14.6 6 Nordeste 15 Nordeste 0 -- -- 70
2019-02-19 11:00:00 13.1 4 Nordeste 11 Nordeste 0 -- -- 79
2019-02-19 10:00:00 11.2 3 Este 7 Nordeste 0 -- -- 88
2019-02-19 09:00:00 9.8 4 Nordeste 9 Nordeste 0 -- -- 92
2019-02-19 08:00:00 9.4 4 Nordeste 7 Este 0 -- -- 95
2019-02-19 07:00:00 9.8 3 Sur 6 Sudoeste 0 -- -- 94
2019-02-19 06:00:00 10.3 3 Sudoeste 5 Sudoeste 0 -- -- 91
2019-02-19 05:00:00 10.8 2 Sudoeste 6 Sudoeste 0 -- -- 86
2019-02-19 04:00:00 10.6 4 Sudoeste 17 Sudoeste 0.2 -- -- 89
2019-02-19 03:00:00 11.1 8 Sur 24 Sur 0 -- -- 82
2019-02-19 02:00:00 11.2 14 Sudoeste 22 Sudoeste 0 -- -- 90
2019-02-19 01:00:00 11.2 8 Sur 20 Sur 0 -- -- 89
2019-02-19 00:00:00 11.1 10 Sur 22 Sur 0.1 -- -- 91
2019-02-18 23:00:00 11.8 10 Sudeste 23 Sur 2.4 -- -- 93
2019-02-18 22:00:00 12.3 11 Sudeste 26 Sudeste 0 -- -- 84
2019-02-18 21:00:00 12 10 Este 27 Este 0 -- -- 84
2019-02-18 20:00:00 12.5 12 Este 23 Este 0 -- -- 81
2019-02-18 19:00:00 12.7 11 Este 30 Este 0 -- -- 79
2019-02-18 18:00:00 13.3 10 Este 36 Este 0 -- -- 78
2019-02-18 17:00:00 13.7 13 Este 34 Este 0 -- -- 76
2019-02-18 16:00:00 14.6 12 Este 32 Este 0 -- -- 71
2019-02-18 15:00:00 14.7 14 Este 36 Sudeste 0 -- -- 71
2019-02-18 14:00:00 14.9 16 Este 36 Este 0 -- -- 69
2019-02-18 13:00:00 15.5 14 Este 37 Este 0 -- -- 71
2019-02-18 12:00:00 14.3 15 Este 29 Este 0 -- -- 77
2019-02-18 11:00:00 13.8 12 Este 28 Este 0 -- -- 77
2019-02-18 10:00:00 12.9 12 Este 28 Este 0 -- -- 80
2019-02-18 09:00:00 12.4 15 Este 30 Sudeste 0 -- -- 82
2019-02-18 08:00:00 11.7 13 Este 23 Este 0 -- -- 84
2019-02-18 07:00:00 11.7 9 Sudeste 27 Este 0 -- -- 83
2019-02-18 06:00:00 11.4 12 Este 27 Este 0 -- -- 84
2019-02-18 05:00:00 11.2 10 Este 24 Este 0 -- -- 86
2019-02-18 04:00:00 11.4 12 Este 29 Este 0 -- -- 84
2019-02-18 03:00:00 11.3 12 Este 31 Este 0 -- -- 84
2019-02-18 02:00:00 11.4 14 Este 31 Este 0 -- -- 83
2019-02-18 01:00:00 11.3 14 Este 39 Este 0 -- -- 83
2019-02-18 00:00:00 11.2 12 Este 27 Este 0 -- -- 84
2019-02-17 23:00:00 11.4 14 Este 35 Este 0 -- -- 82
2019-02-17 22:00:00 11.5 15 Este 30 Este 0 -- -- 83
2019-02-17 21:00:00 11.6 13 Este 28 Este 0 -- -- 82
2019-02-17 20:00:00 11.8 14 Este 27 Este 0 -- -- 80
2019-02-17 19:00:00 12.6 15 Este 31 Este 0 -- -- 77
2019-02-17 18:00:00 14.3 14 Este 36 Este 0 -- -- 70
2019-02-17 17:00:00 15.8 18 Este 42 Este 0 -- -- 62
2019-02-17 16:00:00 17.3 16 Este 40 Este 0 -- -- 55
2019-02-17 15:00:00 18 17 Este 37 Este 0 -- -- 54
2019-02-17 14:00:00 17.9 18 Este 38 Este 0 -- -- 55
2019-02-17 13:00:00 17.4 19 Este 39 Este 0 -- -- 56
2019-02-17 12:00:00 16.5 17 Este 38 Este 0 -- -- 61
2019-02-17 11:00:00 15.4 12 Este 32 Este 0 -- -- 69
2019-02-17 10:00:00 13.5 15 Este 33 Este 0 -- -- 77
2019-02-17 09:00:00 11.5 14 Este 28 Este 0 -- -- 83
2019-02-17 08:00:00 10.8 11 Este 29 Este 0 -- -- 84
2019-02-17 07:00:00 11.1 14 Este 33 Este 0 -- -- 84
2019-02-17 06:00:00 11.1 12 Este 32 Este 0 -- -- 83
2019-02-17 05:00:00 11.5 15 Este 36 Este 0 -- -- 82
2019-02-17 04:00:00 11.3 15 Este 34 Este 0 -- -- 83
2019-02-17 03:00:00 11.6 17 Este 36 Este 0 -- -- 82
2019-02-17 02:00:00 11.7 17 Este 34 Este 0 -- -- 82
2019-02-17 01:00:00 11.9 15 Este 41 Este 0 -- -- 79
2019-02-17 00:00:00 11.7 18 Este 39 Este 0 -- -- 79
2019-02-16 23:00:00 11.9 21 Este 47 Este 0 -- -- 78
2019-02-16 22:00:00 11.8 19 Este 40 Este 0 -- -- 77
2019-02-16 21:00:00 11.8 18 Este 42 Este 0 -- -- 77
2019-02-16 20:00:00 12.2 17 Este 42 Este 0 -- -- 76
2019-02-16 19:00:00 12.5 18 Este 43 Este 0 -- -- 74
2019-02-16 18:00:00 13.3 20 Este 50 Este 0 -- -- 71
2019-02-16 17:00:00 14.3 23 Este 49 Este 0 -- -- 67
2019-02-16 16:00:00 15.4 23 Este 50 Este 0 -- -- 64
2019-02-16 15:00:00 16.4 21 Este 53 Este 0 -- -- 63
2019-02-16 14:00:00 15.9 23 Este 64 Este 0 -- -- 65
2019-02-16 13:00:00 15.5 27 Este 67 Este 0 -- -- 64
2019-02-16 12:00:00 15.4 26 Este 59 Este 0 -- -- 67
2019-02-16 11:00:00 13.5 28 Este 53 Este 0 -- -- 73
2019-02-16 10:00:00 13.6 25 Este 51 Este 0 -- -- 72
2019-02-16 09:00:00 12.5 23 Este 55 Este 0 -- -- 77
2019-02-16 08:00:00 12.2 28 Este 65 Este 0 -- -- 76
2019-02-16 07:00:00 12.2 20 Este 58 Este 0 -- -- 77
2019-02-16 06:00:00 12.2 24 Este 66 Este 0 -- -- 76
2019-02-16 05:00:00 12.5 26 Este 64 Este 0 -- -- 74
2019-02-16 04:00:00 12.5 26 Este 58 Este 0 -- -- 74
2019-02-16 03:00:00 12.4 21 Este 51 Este 0 -- -- 74
2019-02-16 02:00:00 12.1 19 Este 49 Este 0 -- -- 74
2019-02-16 01:00:00 12.2 21 Este 47 Este 0 -- -- 72
2019-02-16 00:00:00 12.3 18 Este 40 Sudeste 0 -- -- 72
2019-02-15 23:00:00 12.1 20 Este 55 Este 0 -- -- 74
2019-02-15 22:00:00 12.1 18 Este 57 Este 0 -- -- 76
2019-02-15 21:00:00 12.1 25 Este 53 Este 0 -- -- 73
2019-02-15 20:00:00 12.1 23 Este 55 Este 0 -- -- 76
2019-02-15 19:00:00 12.4 21 Este 49 Este 0 -- -- 73
2019-02-15 18:00:00 13.3 19 Este 68 Este 0 -- -- 71
2019-02-15 17:00:00 14.1 22 Este 53 Este 0 -- -- 70
2019-02-15 16:00:00 15 23 Este 55 Este 0 -- -- 68
2019-02-15 15:00:00 15.1 23 Este 58 Este 0 -- -- 68
2019-02-15 14:00:00 15.8 21 Este 53 Este 0 -- -- 67
2019-02-15 13:00:00 15.5 24 Este 55 Este 0 -- -- 66
2019-02-15 12:00:00 15.4 22 Este 52 Este 0 -- -- 67
2019-02-15 11:00:00 14.7 21 Este 48 Este 0 -- -- 72
2019-02-15 10:00:00 13.2 22 Este 57 Este 0 -- -- 73
2019-02-15 09:00:00 12.2 23 Este 51 Nordeste 0 -- -- 74
2019-02-15 08:00:00 11.5 18 Este 45 Este 0 -- -- 73
2019-02-15 07:00:00 11.6 20 Este 46 Este 0 -- -- 75
2019-02-15 06:00:00 11.5 20 Este 45 Este 0 -- -- 79
2019-02-15 05:00:00 11.5 22 Este 53 Este 0 -- -- 82
2019-02-15 04:00:00 11.5 22 Este 45 Este 0 -- -- 82
2019-02-15 03:00:00 11.3 22 Este 47 Este 0 -- -- 83
2019-02-15 02:00:00 11.4 20 Este 48 Este 0 -- -- 83
2019-02-15 01:00:00 11.3 22 Este 48 Este 0 -- -- 84
2019-02-15 00:00:00 11.3 20 Este 48 Este 0 -- -- 84
2019-02-14 23:00:00 11.4 19 Este 42 Este 0 -- -- 84
2019-02-14 22:00:00 11.5 18 Este 42 Sudeste 0 -- -- 83
2019-02-14 21:00:00 11.5 21 Este 45 Este 0 -- -- 83
2019-02-14 20:00:00 11.6 18 Este 51 Este 0 -- -- 81
2019-02-14 19:00:00 12.1 19 Este 51 Este 0 -- -- 76
2019-02-14 18:00:00 13.3 21 Este 54 Este 0 -- -- 70
2019-02-14 17:00:00 14.6 23 Este 54 Este 0 -- -- 64
2019-02-14 16:00:00 15.3 24 Este 55 Este 0 -- -- 62
2019-02-14 15:00:00 15.7 24 Este 56 Este 0 -- -- 61
2019-02-14 14:00:00 15.8 28 Este 58 Este 0 -- -- 59
2019-02-14 13:00:00 15.6 27 Este 53 Este 0 -- -- 61
2019-02-14 12:00:00 15.7 25 Este 50 Este 0 -- -- 62
2019-02-14 11:00:00 14.6 23 Este 50 Este 0 -- -- 65
2019-02-14 10:00:00 13.1 24 Este 51 Este 0 -- -- 72
2019-02-14 09:00:00 11.7 20 Este 42 Este 0 -- -- 75
2019-02-14 08:00:00 10.9 19 Este 44 Este 0 -- -- 77
2019-02-14 07:00:00 11.1 21 Este 44 Este 0 -- -- 79
2019-02-14 06:00:00 11.2 21 Este 41 Este 0 -- -- 79
2019-02-14 05:00:00 11.3 22 Este 43 Este 0 -- -- 77
2019-02-14 04:00:00 11.2 18 Este 40 Este 0 -- -- 79
2019-02-14 03:00:00 11.5 18 Este 40 Este 0 -- -- 77
2019-02-14 02:00:00 11.5 21 Este 46 Este 0 -- -- 78
2019-02-14 01:00:00 11.5 20 Este 43 Este 0 -- -- 78
2019-02-14 00:00:00 11.6 21 Este 40 Este 0 -- -- 78
2019-02-13 23:00:00 11.5 19 Este 39 Este 0 -- -- 78
2019-02-13 22:00:00 11.5 19 Este 40 Sudeste 0 -- -- 79
2019-02-13 21:00:00 11.5 17 Este 39 Este 0 -- -- 78
2019-02-13 20:00:00 11.6 18 Este 36 Este 0 -- -- 76
2019-02-13 19:00:00 12.1 17 Este 42 Este 0 -- -- 73
2019-02-13 18:00:00 13.6 17 Este 49 Este 0 -- -- 66
2019-02-13 17:00:00 14.7 23 Este 48 Este 0 -- -- 60
2019-02-13 16:00:00 15.5 21 Este 46 Este 0 -- -- 59
2019-02-13 15:00:00 16.1 18 Este 49 Este 0 -- -- 60
2019-02-13 14:00:00 15.5 21 Este 43 Norte 0 -- -- 63
2019-02-13 13:00:00 15.1 -- -- 49 Norte 0 -- -- 65
2019-02-13 12:00:00 14.8 -- -- 45 Norte 0 -- -- 67
2019-02-13 11:00:00 14.4 -- -- 37 Norte 0 -- -- 71
2019-02-13 10:00:00 13 -- -- 34 Norte 0 -- -- 76
2019-02-13 09:00:00 11.4 -- -- 31 Norte 0 -- -- 80
2019-02-13 08:00:00 10.9 -- -- 36 Norte 0 -- -- 80
2019-02-13 07:00:00 11.2 -- -- 38 Norte 0 -- -- 81
2019-02-13 06:00:00 11.3 18 Este 38 Este 0 -- -- 80
2019-02-13 05:00:00 11.3 17 Este 42 Este 0 -- -- 79
2019-02-13 04:00:00 11.2 17 Este 38 Este 0 -- -- 79
2019-02-13 03:00:00 11.5 17 Este 44 Este 0 -- -- 78
2019-02-13 02:00:00 11.8 19 Este 43 Sudeste 0 -- -- 78
2019-02-13 01:00:00 11.5 17 Este 42 Este 0 -- -- 83
2019-02-13 00:00:00 11.7 18 Este 41 Este 0 -- -- 81
2019-02-12 23:00:00 11.5 17 Este 42 Este 0 -- -- 82
2019-02-12 22:00:00 11.5 20 Este 46 Este 0 -- -- 81
2019-02-12 21:00:00 11.7 21 Este 49 Este 0 -- -- 79
2019-02-12 20:00:00 12.1 21 Este 47 Este 0 -- -- 77
2019-02-12 19:00:00 12.4 19 Este 46 Este 0 -- -- 73
2019-02-12 18:00:00 13.5 19 Este 44 Este 0 -- -- 73
2019-02-12 17:00:00 14 22 Este 56 Este 0 -- -- 73
2019-02-12 16:00:00 14.6 21 Este 51 Este 0 -- -- 72
2019-02-12 15:00:00 14.5 19 Este 50 Este 0 -- -- 73
2019-02-12 14:00:00 14.9 19 Este 52 Este 0 -- -- 71
2019-02-12 13:00:00 16 22 Este 60 Este 0 -- -- 67
2019-02-12 12:00:00 15.9 20 Este 54 Este 0 -- -- 68
2019-02-12 11:00:00 15.4 18 Este 42 Este 0 -- -- 67
2019-02-12 10:00:00 13.9 17 Este 35 Este 0 -- -- 78
2019-02-12 09:00:00 12.6 15 Este 37 Este 0 -- -- 86
2019-02-12 08:00:00 11.7 14 Este 35 Sudeste 0 -- -- 89
2019-02-12 07:00:00 11.4 14 Este 29 Este 0 -- -- 90
2019-02-12 06:00:00 10.7 9 Este 22 Este 0 -- -- 90
2019-02-12 05:00:00 10.5 7 Este 15 Nordeste 0 -- -- 85
2019-02-12 04:00:00 9.6 6 Nordeste 13 Nordeste 0 -- -- 85
2019-02-12 03:00:00 9.7 3 Nordeste 9 Nordeste 0 -- -- 86
2019-02-12 02:00:00 10.4 2 Nordeste 6 Nordeste 0 -- -- 86
2019-02-12 01:00:00 10.6 0 Calma 10 Oeste 0 -- -- 88
2019-02-12 00:00:00 11.8 6 Noroeste 9 Oeste 0 -- -- 83
2019-02-11 23:00:00 11.2 0 Calma 8 Oeste 0 -- -- 81
2019-02-11 22:00:00 12 0 Calma 18 Oeste 0 -- -- 73
2019-02-11 21:00:00 12.2 12 Oeste 21 Oeste 0 -- -- 85
2019-02-11 20:00:00 12.3 13 Oeste 21 Oeste 0 -- -- 92
2019-02-11 19:00:00 12.8 14 Oeste 26 Oeste 0 -- -- 89
2019-02-11 18:00:00 14.7 13 Oeste 26 Oeste 0 -- -- 78
2019-02-11 17:00:00 16.5 14 Oeste 27 Oeste 0 -- -- 71
2019-02-11 16:00:00 17.6 15 Oeste 27 Oeste 0 -- -- 70
2019-02-11 15:00:00 17.3 14 Oeste 25 Sudoeste 0 -- -- 71
2019-02-11 14:00:00 16.5 8 Noroeste 17 Oeste 0 -- -- 68
2019-02-11 13:00:00 16.5 5 Noroeste 17 Oeste 0 -- -- 71
2019-02-11 12:00:00 15.3 6 Noroeste 14 Oeste 0 -- -- 77
2019-02-11 11:00:00 14.4 6 Noroeste 16 Oeste 0 -- -- 82
2019-02-11 10:00:00 13 7 Noroeste 14 Oeste 0 -- -- 85
2019-02-11 09:00:00 12.6 4 Noroeste 11 Noroeste 0 -- -- 85
2019-02-11 08:00:00 12.5 5 Noroeste 13 Norte 0 -- -- 84
2019-02-11 07:00:00 12.6 5 Noroeste 15 Noroeste 0 -- -- 85
2019-02-11 06:00:00 12.5 6 Noroeste 13 Noroeste 0 -- -- 89
2019-02-11 05:00:00 12.3 7 Noroeste 15 Norte 0 -- -- 95
2019-02-11 04:00:00 12.2 7 Noroeste 16 Oeste 0 -- -- 95
2019-02-11 03:00:00 12.1 9 Oeste 17 Oeste 0 -- -- 95
2019-02-11 02:00:00 11.6 7 Oeste 16 Oeste 0 -- -- 92
2019-02-11 01:00:00 11.7 6 Oeste 17 Oeste 0 -- -- 90
2019-02-11 00:00:00 11.4 4 Oeste 17 Oeste 0 -- -- 90
2019-02-10 23:00:00 11.3 9 Oeste 15 Oeste 0 -- -- 88
2019-02-10 22:00:00 11 7 Oeste 16 Oeste 0 -- -- 83
2019-02-10 21:00:00 11.3 11 Oeste 21 Oeste 0 -- -- 73
2019-02-10 20:00:00 11.5 10 Oeste 17 Oeste 0 -- -- 68
2019-02-10 19:00:00 12.7 10 Oeste 23 Noroeste 0 -- -- 64
2019-02-10 18:00:00 14.5 15 Oeste 25 Noroeste 0 -- -- 58
2019-02-10 17:00:00 15.5 11 Oeste 28 Oeste 0 -- -- 59
2019-02-10 16:00:00 15.3 15 Oeste 28 Oeste 0 -- -- 58
2019-02-10 15:00:00 15.6 11 Oeste 22 Oeste 0 -- -- 57
2019-02-10 14:00:00 15.4 9 Oeste 22 Oeste 0 -- -- 58
2019-02-10 13:00:00 14.7 6 Noroeste 20 Oeste 0 -- -- 59
2019-02-10 12:00:00 14.7 11 Oeste 24 Oeste 0 -- -- 59
2019-02-10 11:00:00 13.2 12 Oeste 20 Oeste 0 -- -- 68
2019-02-10 10:00:00 12.2 5 Oeste 18 Oeste 0 -- -- 72
2019-02-10 09:00:00 11.6 10 Oeste 21 Oeste 0 -- -- 77
2019-02-10 08:00:00 11.7 6 Noroeste 13 Oeste 0 -- -- 79
2019-02-10 07:00:00 11.2 6 Sudoeste 10 Sudoeste 0 -- -- 78
2019-02-10 06:00:00 11.1 4 Oeste 13 Sudoeste 0 -- -- 78
2019-02-10 05:00:00 11.1 8 Oeste 15 Sudoeste 0 -- -- 79
2019-02-10 04:00:00 10.8 5 Sudoeste 9 Sudoeste 0 -- -- 89
2019-02-10 03:00:00 10.2 4 Sudoeste 7 Oeste 0 -- -- 89
2019-02-10 02:00:00 10.6 3 Oeste 7 Oeste 0 -- -- 89
2019-02-10 01:00:00 10.7 5 Oeste 8 Oeste 0 -- -- 86
2019-02-10 00:00:00 11.1 5 Oeste 8 Oeste 0 -- -- 83
2019-02-09 23:00:00 11.3 7 Oeste 12 Oeste 0 -- -- 80
2019-02-09 22:00:00 11.4 9 Oeste 13 Oeste 0 -- -- 82
2019-02-09 21:00:00 11.5 9 Oeste 16 Oeste 0 -- -- 83
2019-02-09 20:00:00 11.7 10 Oeste 16 Oeste 0 -- -- 79
2019-02-09 19:00:00 12.5 11 Oeste 19 Oeste 0 -- -- 73
2019-02-09 18:00:00 14.3 11 Oeste 17 Oeste 0 -- -- 65
2019-02-09 17:00:00 16.2 8 Oeste 17 Sudoeste 0 -- -- 59
2019-02-09 16:00:00 16.3 10 Oeste 21 Sudoeste 0 -- -- 60
2019-02-09 15:00:00 16.6 10 Oeste 19 Sudoeste 0 -- -- 60
2019-02-09 14:00:00 15.8 9 Sudoeste 19 Oeste 0 -- -- 65
2019-02-09 13:00:00 14.5 8 Oeste 13 Oeste 0 -- -- 70
2019-02-09 12:00:00 13.6 6 Oeste 15 Sudoeste 0 -- -- 78
2019-02-09 11:00:00 13.2 3 Sudoeste 6 Sudoeste 0 -- -- 85
2019-02-09 10:00:00 10.4 0 Calma 5 Sudoeste 0 -- -- 94
2019-02-09 09:00:00 8.9 3 Sudoeste 6 Sudoeste 0 -- -- 94
2019-02-09 08:00:00 8.8 2 Sudoeste 6 Sudoeste 0 -- -- 94
2019-02-09 07:00:00 9.7 3 Sudoeste 8 Sudoeste 0 -- -- 95
2019-02-09 06:00:00 10 5 Oeste 9 Oeste 0 -- -- 94
2019-02-09 05:00:00 9.7 5 Oeste 8 Oeste 0 -- -- 94
2019-02-09 04:00:00 9.9 3 Noroeste 4 Noroeste 0 -- -- 91
2019-02-09 03:00:00 10.6 0 Calma 7 Norte 0 -- -- 89
2019-02-09 02:00:00 11 4 Norte 9 Norte 0 -- -- 86
2019-02-09 01:00:00 11.1 4 Noroeste 10 Noroeste 0 -- -- 85
2019-02-09 00:00:00 10.8 6 Oeste 11 Oeste 0 -- -- 91
2019-02-08 23:00:00 11.1 8 Oeste 15 Oeste 0 -- -- 84
2019-02-08 22:00:00 11.8 10 Oeste 17 Oeste 0 -- -- 72
2019-02-08 21:00:00 11.5 10 Oeste 17 Oeste 0 -- -- 86
2019-02-08 20:00:00 11.6 10 Oeste 14 Oeste 0 -- -- 89
2019-02-08 19:00:00 12.6 10 Oeste 17 Oeste 0 -- -- 77
2019-02-08 18:00:00 14.8 9 Oeste 20 Oeste 0 -- -- 64
2019-02-08 17:00:00 16.4 11 Oeste 21 Oeste 0 -- -- 62
2019-02-08 16:00:00 16.6 11 Oeste 20 Oeste 0 -- -- 65
2019-02-08 15:00:00 16.6 10 Oeste 20 Oeste 0 -- -- 64
2019-02-08 14:00:00 15.1 10 Oeste 17 Oeste 0 -- -- 64
2019-02-08 13:00:00 15.9 7 Sudoeste 15 Sudoeste 0 -- -- 56
2019-02-08 12:00:00 14.9 5 Oeste 10 Sudoeste 0 -- -- 62
2019-02-08 11:00:00 13.4 4 Sudoeste 11 Sudoeste 0 -- -- 76
2019-02-08 10:00:00 11.7 5 Oeste 12 Sudoeste 0 -- -- 94
2019-02-08 09:00:00 10.5 4 Oeste 7 Oeste 0 -- -- 95
2019-02-08 08:00:00 10 5 Oeste 6 Oeste 0 -- -- 95
2019-02-08 07:00:00 9.9 3 Oeste 8 Oeste 0 -- -- 95
2019-02-08 06:00:00 10.7 3 Noroeste 8 Oeste 0 -- -- 95
2019-02-08 05:00:00 11.3 5 Oeste 8 Oeste 0 -- -- 94
2019-02-08 04:00:00 11.3 4 Oeste 10 Norte 0 -- -- 85
2019-02-08 03:00:00 11.8 5 Noroeste 12 Noroeste 0 -- -- 90
2019-02-08 02:00:00 11.7 5 Noroeste 12 Noroeste 0 -- -- 85
2019-02-08 01:00:00 12.2 6 Noroeste 16 Noroeste 0 -- -- 78
2019-02-08 00:00:00 12.7 9 Noroeste 22 Oeste 0 -- -- 50
2019-02-07 23:00:00 13.8 10 Noroeste 22 Oeste 0 -- -- 45
2019-02-07 22:00:00 14.1 12 Noroeste 23 Oeste 0 -- -- 50
2019-02-07 21:00:00 14 13 Oeste 22 Oeste 0 -- -- 53
2019-02-07 20:00:00 13.5 12 Oeste 20 Oeste 0 -- -- 65
2019-02-07 19:00:00 12.8 12 Oeste 18 Oeste 0 -- -- 80
2019-02-07 18:00:00 15 12 Oeste 20 Oeste 0 -- -- 67
2019-02-07 17:00:00 16.9 12 Oeste 19 Oeste 0 -- -- 61
2019-02-07 16:00:00 17.2 11 Oeste 19 Oeste 0 -- -- 61
2019-02-07 15:00:00 17.7 10 Oeste 17 Oeste 0 -- -- 65
2019-02-07 14:00:00 17.4 8 Sudoeste 17 Oeste 0 -- -- 64
2019-02-07 13:00:00 16.6 5 Sudoeste 12 Sudoeste 0 -- -- 68
2019-02-07 12:00:00 15.5 6 Oeste 13 Oeste 0 -- -- 73
2019-02-07 11:00:00 14 9 Sudoeste 14 Sudoeste 0 -- -- 85
2019-02-07 10:00:00 12.2 6 Sudoeste 11 Sudoeste 0 -- -- 88
2019-02-07 09:00:00 11.3 7 Oeste 15 Oeste 0 -- -- 89
2019-02-07 08:00:00 11.5 10 Oeste 14 Oeste 0 -- -- 89
2019-02-07 07:00:00 11.6 10 Oeste 15 Oeste 0 -- -- 79
2019-02-07 06:00:00 11.8 6 Noroeste 13 Norte 0 -- -- 61
2019-02-07 05:00:00 12.5 8 Norte 14 Norte 0 -- -- 56
2019-02-07 04:00:00 12.7 7 Norte 15 Norte 0 -- -- 54
2019-02-07 03:00:00 12.7 9 Norte 16 Norte 0 -- -- 55
2019-02-07 02:00:00 13 10 Norte 14 Norte 0 -- -- 54
2019-02-07 01:00:00 13.3 7 Norte 15 Norte 0 -- -- 54
2019-02-07 00:00:00 13 6 Noroeste 14 Norte 0 -- -- 59
2019-02-06 23:00:00 13 6 Norte 13 Norte 0 -- -- 61
2019-02-06 22:00:00 13.5 6 Norte 13 Norte 0 -- -- 56
2019-02-06 21:00:00 12.6 3 Noroeste 15 Oeste 0 -- -- 61
2019-02-06 20:00:00 13.3 10 Oeste -- -- 0 -- -- 66
2019-02-06 19:00:00 13.9 8 Oeste 14 Oeste 0 -- -- 73
2019-02-06 18:00:00 15.8 7 Oeste 20 Oeste 0 -- -- 64
2019-02-06 17:00:00 18.4 9 Oeste 18 Oeste 0 -- -- 52
2019-02-06 16:00:00 19.2 9 Oeste 18 Oeste 0 -- -- 53
2019-02-06 15:00:00 19.8 2 Sur 9 Sudeste 0 -- -- 45
2019-02-06 14:00:00 19 3 Este 15 Este 0 -- -- 47
2019-02-06 13:00:00 17.3 9 Este 20 Este 0 -- -- 53
2019-02-06 12:00:00 16.9 6 Este 14 Sudeste -- -- -- 59
2019-02-06 11:00:00 14.5 4 Este 9 Este 0 -- -- 64
2019-02-06 10:00:00 12.9 4 Este 10 Este 0 -- -- 70
2019-02-06 09:00:00 11.5 5 Nordeste 10 Nordeste 0 -- -- 71
2019-02-06 08:00:00 10.9 3 Este 8 Este 0 -- -- 73
2019-02-06 07:00:00 10.9 4 Este 10 Este 0 -- -- 73
2019-02-06 06:00:00 10.4 4 Nordeste 8 Nordeste 0 -- -- 73
2019-02-06 05:00:00 11.4 0 Calma 3 Nordeste 0 -- -- 68
2019-02-06 04:00:00 11.4 0 Calma 3 Nordeste 0 -- -- 64
2019-02-06 03:00:00 10.6 3 Nordeste 6 Nordeste 0 -- -- 67
2019-02-06 02:00:00 10.6 5 Nordeste 8 Nordeste 0 -- -- 64
2019-02-06 01:00:00 11.7 3 Nordeste 8 Nordeste 0 -- -- 56
2019-02-06 00:00:00 11.3 2 Norte 6 Norte 0 -- -- 55
2019-02-05 23:00:00 13 4 Norte 9 Norte 0 -- -- 52
2019-02-05 22:00:00 13.1 3 Norte 12 Norte 0 -- -- 52
2019-02-05 21:00:00 13.8 7 Norte 13 Norte 0 -- -- 52
2019-02-05 20:00:00 13.7 4 Noroeste 8 Noroeste 0 -- -- 52
2019-02-05 19:00:00 14.1 4 Noroeste 11 Oeste 0 -- -- 53
2019-02-05 18:00:00 15.7 9 Oeste 14 Oeste 0 -- -- 55
2019-02-05 17:00:00 17.5 7 Oeste 16 Oeste 0 -- -- 52
2019-02-05 16:00:00 17.7 8 Oeste 16 Oeste 0 -- -- 51
2019-02-05 15:00:00 17.6 10 Oeste 19 Oeste 0 -- -- 50
2019-02-05 14:00:00 18.8 0 Calma 11 Este 0 -- -- 44
2019-02-05 13:00:00 16.5 4 Este 14 Este 0 -- -- 49
2019-02-05 12:00:00 14.6 6 Este 11 Sudeste 0 -- -- 51
2019-02-05 11:00:00 13.1 5 Este 10 Este 0 -- -- 57
2019-02-05 10:00:00 11.4 3 Este 10 Este 0 -- -- 63
2019-02-05 09:00:00 9.5 5 Este 10 Este 0 -- -- 67
2019-02-05 08:00:00 8.2 5 Nordeste 8 Nordeste 0 -- -- 71
2019-02-05 07:00:00 8.9 4 Nordeste 8 Nordeste 0 -- -- 66
2019-02-05 06:00:00 8.9 5 Nordeste 8 Nordeste 0 -- -- 66
2019-02-05 05:00:00 8.9 3 Nordeste 7 Este 0 -- -- 64
2019-02-05 04:00:00 8.8 4 Este 5 Este 0 -- -- 64
2019-02-05 03:00:00 9.4 3 Este 8 Este 0 -- -- 60
2019-02-05 02:00:00 9.2 6 Este 10 Este 0 -- -- 59
2019-02-05 01:00:00 9.8 6 Este 11 Nordeste 0 -- -- 59
2019-02-05 00:00:00 9.3 3 Nordeste 7 Nordeste 0 -- -- 59
2019-02-04 23:00:00 10.1 2 Norte 8 Norte 0 -- -- 56
2019-02-04 22:00:00 10.5 3 Nordeste 8 Nordeste 0 -- -- 56
2019-02-04 21:00:00 11 2 Oeste 5 Oeste 0 -- -- 58
2019-02-04 20:00:00 11.8 0 Calma 5 Oeste 0 -- -- 54
2019-02-04 19:00:00 12.7 0 Calma 11 Sudoeste 0 -- -- 50
2019-02-04 18:00:00 14.2 6 Oeste 14 Oeste 0 -- -- 47
2019-02-04 17:00:00 16.3 7 Sudoeste 14 Sudoeste 0 -- -- 47
2019-02-04 16:00:00 16.4 6 Sudoeste 13 Sudoeste 0 -- -- 43
2019-02-04 15:00:00 15.9 3 Nordeste 10 Nordeste 0 -- -- 37
2019-02-04 14:00:00 15.3 5 Este 13 Nordeste 0 -- -- 38
2019-02-04 13:00:00 14.1 4 Este 9 Este 0 -- -- 37
2019-02-04 12:00:00 12.9 3 Nordeste 7 Nordeste 0 -- -- 44
2019-02-04 11:00:00 10.2 2 Nordeste 8 Nordeste 0 -- -- 52
2019-02-04 10:00:00 7.7 5 Nordeste 8 Nordeste 0 -- -- 56
2019-02-04 09:00:00 6 3 Nordeste 10 Nordeste 0 -- -- 61
2019-02-04 08:00:00 5.7 3 Nordeste 9 Nordeste 0 -- -- 62
2019-02-04 07:00:00 6 5 Nordeste 9 Nordeste 0 -- -- 60
2019-02-04 06:00:00 4.9 3 Norte 10 Nordeste 0 -- -- 68
2019-02-04 05:00:00 5.8 5 Nordeste 10 Nordeste 0 -- -- 62
2019-02-04 04:00:00 6.3 3 Nordeste 19 Norte 0 -- -- 60
2019-02-04 03:00:00 7.3 11 Norte 22 Norte 0 -- -- 58
2019-02-04 02:00:00 7.1 7 Norte 25 Norte 0 -- -- 58
2019-02-04 01:00:00 7.4 12 Norte 27 Norte 0 -- -- 58
2019-02-04 00:00:00 7.9 9 Norte 23 Norte 0 -- -- 55
2019-02-03 23:00:00 6.7 6 Norte 23 Norte 0 -- -- 59
2019-02-03 22:00:00 8 8 Norte 19 Norte 0 -- -- 54
2019-02-03 21:00:00 9 6 Noroeste 16 Noroeste 0 -- -- 52
2019-02-03 20:00:00 8.3 8 Oeste 20 Oeste 0 -- -- 64
2019-02-03 19:00:00 8.8 14 Oeste 21 Oeste 0 -- -- 61
2019-02-03 18:00:00 11.4 5 Noroeste 18 Noroeste 0 -- -- 43
2019-02-03 17:00:00 12.6 7 Noroeste 22 Oeste 0 -- -- 41
2019-02-03 16:00:00 12.2 10 Noroeste 24 Oeste 0 -- -- 43
2019-02-03 15:00:00 12.6 8 Noroeste 23 Oeste 0 -- -- 44
2019-02-03 14:00:00 11.6 9 Noroeste 19 Oeste 0 -- -- 45
2019-02-03 13:00:00 11 5 Norte 15 Norte 0 -- -- 48
2019-02-03 12:00:00 9.7 5 Noroeste 16 Norte 0 -- -- 51
2019-02-03 11:00:00 8.4 5 Noroeste 11 Oeste 0 -- -- 53
2019-02-03 10:00:00 7.3 4 Noroeste 16 Norte 0 -- -- 54
2019-02-03 09:00:00 7.2 10 Norte 18 Norte 0 -- -- 52
2019-02-03 08:00:00 6.5 8 Norte 15 Norte 0 -- -- 54
2019-02-03 07:00:00 5.9 7 Norte 13 Norte 0 -- -- 59
2019-02-03 06:00:00 5.6 7 Norte 16 Norte 0 -- -- 60
2019-02-03 05:00:00 6.5 6 Norte 24 Norte 0 -- -- 58
2019-02-03 04:00:00 7.2 9 Noroeste 21 Noroeste 0 -- -- 55
2019-02-03 03:00:00 7.3 7 Noroeste 22 Noroeste 0 -- -- 53
2019-02-03 02:00:00 7.7 9 Noroeste 23 Noroeste 0 -- -- 51
2019-02-03 01:00:00 7.9 10 Noroeste 23 Norte 0 -- -- 50
2019-02-03 00:00:00 8 8 Noroeste 28 Noroeste 0 -- -- 50
2019-02-02 23:00:00 8.8 12 Noroeste 28 Noroeste 0 -- -- 48
2019-02-02 22:00:00 9.4 12 Noroeste 29 Noroeste 0 -- -- 47
2019-02-02 21:00:00 9.6 11 Noroeste 25 Norte 0 -- -- 47
2019-02-02 20:00:00 10.1 11 Noroeste 34 Oeste 0 -- -- 47
2019-02-02 19:00:00 10.5 16 Noroeste 41 Oeste 0 -- -- 47
2019-02-02 18:00:00 11.3 20 Noroeste 54 Oeste 0 -- -- 48
2019-02-02 17:00:00 12 26 Oeste 53 Oeste 0 -- -- 48
2019-02-02 16:00:00 11.9 26 Oeste 52 Oeste 0 -- -- 48
2019-02-02 15:00:00 12.2 21 Noroeste 55 Oeste 0 -- -- 47
2019-02-02 14:00:00 11.5 29 Oeste 52 Oeste 0 -- -- 50
2019-02-02 13:00:00 11.3 23 Oeste 55 Oeste 0 -- -- 55
2019-02-02 12:00:00 10.5 26 Oeste 49 Oeste 0 -- -- 54
2019-02-02 11:00:00 10.4 18 Noroeste 44 Noroeste 0 -- -- 58
2019-02-02 10:00:00 9.7 14 Noroeste 39 Oeste 0 -- -- 66
2019-02-02 09:00:00 9.4 17 Oeste 45 Oeste 0 -- -- 69
2019-02-02 08:00:00 9.8 19 Oeste 42 Oeste 0 -- -- 66
2019-02-02 07:00:00 10.1 18 Oeste 42 Noroeste 0 -- -- 67
2019-02-02 06:00:00 10.4 19 Oeste 37 Oeste 0 -- -- 66
2019-02-02 05:00:00 10.5 23 Oeste 49 Oeste 0 -- -- 64
2019-02-02 04:00:00 10.9 18 Oeste 40 Oeste 0 -- -- 65
2019-02-02 03:00:00 10.6 14 Oeste 36 Oeste 0 -- -- 65
2019-02-02 02:00:00 10.5 18 Oeste 31 Oeste 0 -- -- 67
2019-02-02 01:00:00 10.1 17 Oeste 35 Noroeste 0 -- -- 67
2019-02-02 00:00:00 9.8 20 Oeste 55 Oeste 0 -- -- 66
2019-02-01 23:00:00 11 22 Oeste 47 Oeste 0 -- -- 67
2019-02-01 22:00:00 11.1 24 Oeste 42 Noroeste 0 -- -- 67
2019-02-01 21:00:00 11.5 28 Oeste 54 Oeste 0 -- -- 67
2019-02-01 20:00:00 11.5 24 Oeste 59 Sudoeste 0 -- -- 73
2019-02-01 19:00:00 12.1 27 Oeste 62 Oeste 0 -- -- 67
2019-02-01 18:00:00 12.6 27 Oeste 60 Oeste 0.2 -- -- 67
2019-02-01 17:00:00 13.3 32 Oeste 62 Oeste 0 -- -- 60
2019-02-01 16:00:00 14 27 Oeste 55 Oeste 0 -- -- 60
2019-02-01 15:00:00 14 28 Oeste 55 Oeste 1.2 -- -- 61
2019-02-01 14:00:00 13.1 24 Oeste 48 Oeste 1.6 -- -- 64
2019-02-01 13:00:00 12.8 20 Oeste 55 Oeste 1.7 -- -- 72
2019-02-01 12:00:00 13.4 25 Oeste 47 Oeste 1.9 -- -- 65
2019-02-01 11:00:00 12.5 24 Oeste 45 Oeste 2.1 -- -- 73
2019-02-01 10:00:00 12 20 Oeste 44 Oeste 2.1 -- -- 89
2019-02-01 09:00:00 11.2 30 Oeste 72 Sudoeste 2 -- -- 95
2019-02-01 08:00:00 13.5 39 Sudoeste 72 Sudoeste 1.8 -- -- 95
2019-02-01 07:00:00 13.5 36 Sudoeste 72 Sudoeste 1.4 -- -- 95
2019-02-01 06:00:00 13.7 39 Sudoeste 67 Sudoeste 1.3 -- -- 91
2019-02-01 05:00:00 13.6 37 Sudoeste 85 Oeste 1.1 -- -- 92
2019-02-01 04:00:00 13.3 37 Sudoeste 72 Sudoeste 0.2 -- -- 94
2019-02-01 03:00:00 13.4 38 Sudoeste 67 Sudoeste 0.1 -- -- 95
2019-02-01 02:00:00 13.6 37 Sudoeste 67 Sudoeste 0 -- -- 91
2019-02-01 01:00:00 13.5 36 Sudoeste 62 Sudoeste 0 -- -- 90
2019-02-01 00:00:00 13.2 35 Sudoeste 60 Sudoeste 0.2 -- -- 94
2019-01-31 23:00:00 12.7 33 Sudoeste 62 Sudoeste 0.8 -- -- 95
2019-01-31 22:00:00 13 28 Sudoeste 53 Oeste 0 -- -- 85
2019-01-31 21:00:00 13.9 27 Sudoeste 47 Sudoeste 0 -- -- 84
2019-01-31 20:00:00 13.8 26 Sudoeste 46 Sudoeste 0 -- -- 83
2019-01-31 19:00:00 13.6 24 Sudoeste 43 Sudoeste 0 -- -- 78
2019-01-31 18:00:00 13.8 22 Sudoeste 45 Sudoeste 0 -- -- 79
2019-01-31 17:00:00 14.2 26 Sudoeste 47 Sudoeste 0 -- -- 78
2019-01-31 16:00:00 14 25 Oeste 44 Sudoeste 0 -- -- 85
2019-01-31 15:00:00 13.5 23 Sudoeste 42 Oeste 0 -- -- 88
2019-01-31 14:00:00 13.6 24 Sudoeste 54 Oeste 0 -- -- 84
2019-01-31 13:00:00 13.9 23 Sudoeste 41 Oeste 0 -- -- 78
2019-01-31 12:00:00 12.4 17 Oeste 46 Oeste 0 -- -- 94
2019-01-31 11:00:00 12.4 18 Oeste 42 Oeste 0.7 -- -- 95
2019-01-31 10:00:00 12.3 16 Oeste 39 Oeste 0 -- -- 95
2019-01-31 09:00:00 12.5 14 Oeste 40 Sudoeste 0 -- -- 94
2019-01-31 08:00:00 13 22 Oeste 41 Oeste 0 -- -- 92
2019-01-31 07:00:00 12.7 22 Oeste 37 Oeste 0 -- -- 95
2019-01-31 06:00:00 12.3 20 Sudoeste 42 Sudoeste 1.1 -- -- 95
2019-01-31 05:00:00 12.8 23 Oeste 40 Oeste 0.5 -- -- 92
2019-01-31 04:00:00 12.7 24 Oeste 45 Sudoeste 0.3 -- -- 91
2019-01-31 03:00:00 12.9 19 Oeste 38 Oeste 0 -- -- 91
2019-01-31 02:00:00 12.9 21 Oeste 36 Sudoeste 0 -- -- 91
2019-01-31 01:00:00 12.8 19 Oeste 36 Sudoeste 0 -- -- 91
2019-01-31 00:00:00 12.6 16 Oeste 31 Sudoeste 0.1 -- -- 94
2019-01-30 23:00:00 12.5 20 Oeste 35 Sudoeste 1 -- -- 95
2019-01-30 22:00:00 12.4 14 Oeste 26 Sudoeste 1.4 -- -- 96
2019-01-30 21:00:00 12.2 15 Oeste 28 Sudoeste 1.4 -- -- 96
2019-01-30 20:00:00 12.2 17 Oeste 33 Oeste 1.4 -- -- 96
2019-01-30 19:00:00 12.2 18 Oeste 43 Oeste 0.8 -- -- 96
2019-01-30 18:00:00 12.8 16 Oeste 36 Oeste 0.1 -- -- 94
2019-01-30 17:00:00 13.2 12 Oeste 22 Oeste 0 -- -- 88
2019-01-30 16:00:00 13.4 11 Oeste 25 Oeste 0 -- -- 84
2019-01-30 15:00:00 14 12 Oeste 32 Oeste 0 -- -- 79
2019-01-30 14:00:00 13.9 12 Oeste 30 Noroeste 0 -- -- 78
2019-01-30 13:00:00 14 16 Oeste 31 Oeste 0 -- -- 77
2019-01-30 12:00:00 13.1 15 Oeste 41 Oeste 0 -- -- 84
2019-01-30 11:00:00 12.4 11 Oeste 33 Oeste 0.2 -- -- 92
2019-01-30 10:00:00 11.9 16 Oeste 33 Noroeste 1 -- -- 95
2019-01-30 09:00:00 12 16 Oeste 40 Oeste 0.2 -- -- 94
2019-01-30 08:00:00 12.2 13 Oeste 32 Oeste 0 -- -- 91
2019-01-30 07:00:00 12 15 Oeste 29 Oeste 0 -- -- 90
2019-01-30 06:00:00 11.5 10 Oeste 24 Oeste 0 -- -- 91
2019-01-30 05:00:00 11.3 10 Oeste 22 Oeste 0 -- -- 89
2019-01-30 04:00:00 11.2 8 Oeste 20 Oeste 0 -- -- 88
2019-01-30 03:00:00 11.3 6 Oeste 19 Oeste 0 -- -- 84
2019-01-30 02:00:00 11.2 9 Oeste 19 Oeste 0 -- -- 84
2019-01-30 01:00:00 11.6 9 Oeste 21 Oeste 0 -- -- 83
2019-01-30 00:00:00 12.1 12 Oeste 26 Oeste 0 -- -- 77
2019-01-29 23:00:00 12.6 10 Noroeste 28 Oeste 0 -- -- 79
2019-01-29 22:00:00 12.6 10 Oeste 31 Oeste 0 -- -- 90
2019-01-29 21:00:00 12.9 15 Oeste 31 Oeste 0 -- -- 88
2019-01-29 20:00:00 12.7 14 Oeste 31 Sudoeste 0 -- -- 86
2019-01-29 19:00:00 12.7 17 Oeste 33 Oeste 0 -- -- 85
2019-01-29 18:00:00 13.1 18 Oeste 36 Sudoeste 0 -- -- 79
2019-01-29 17:00:00 12.9 14 Oeste 31 Oeste 0 -- -- 78
2019-01-29 16:00:00 12.7 11 Oeste 31 Oeste 0 -- -- 84
2019-01-29 15:00:00 12.9 13 Oeste 28 Oeste 0 -- -- 74
2019-01-29 14:00:00 13.2 16 Oeste 34 Oeste 0 -- -- 70
2019-01-29 13:00:00 13.6 15 Noroeste 31 Oeste 0 -- -- 66
2019-01-29 12:00:00 13.6 15 Oeste 36 Oeste 0 -- -- 65
2019-01-29 11:00:00 12.3 17 Oeste 39 Oeste 0 -- -- 72
2019-01-29 10:00:00 11 14 Oeste 34 Oeste 0 -- -- 77
2019-01-29 09:00:00 10.2 13 Oeste 35 Oeste 0 -- -- 85
2019-01-29 08:00:00 10.9 17 Oeste 31 Oeste 0 -- -- 83
2019-01-29 07:00:00 11.2 13 Oeste 26 Oeste 0 -- -- 83
2019-01-29 06:00:00 11.1 17 Oeste 33 Oeste 0 -- -- 85
2019-01-29 05:00:00 10.6 15 Oeste 32 Oeste 0 -- -- 88
2019-01-29 04:00:00 11 19 Oeste 30 Oeste 0 -- -- 86
2019-01-29 03:00:00 11.3 16 Oeste 26 Oeste 0 -- -- 84
2019-01-29 02:00:00 11.3 15 Oeste 26 Oeste 0 -- -- 84
2019-01-29 01:00:00 11.3 13 Oeste 24 Oeste 0 -- -- 84
2019-01-29 00:00:00 10.7 10 Oeste 25 Oeste 0 -- -- 85
2019-01-28 23:00:00 11 7 Oeste 28 Noroeste 0 -- -- 82
2019-01-28 22:00:00 11.7 14 Oeste 27 Oeste 0 -- -- 77
2019-01-28 21:00:00 11.5 10 Oeste 30 Oeste 0 -- -- 74
2019-01-28 20:00:00 11.9 17 Oeste 32 Oeste 0 -- -- 72
2019-01-28 19:00:00 12.5 18 Oeste 44 Oeste 0 -- -- 76
2019-01-28 18:00:00 12.5 21 Oeste 44 Oeste 0 -- -- 72
2019-01-28 17:00:00 13.2 21 Oeste 39 Oeste 0 -- -- 66
2019-01-28 16:00:00 12.9 20 Oeste 35 Oeste 0 -- -- 61
2019-01-28 15:00:00 13.6 14 Oeste 29 Oeste 0 -- -- 55
2019-01-28 14:00:00 13.6 14 Oeste 27 Oeste 0 -- -- 55
2019-01-28 13:00:00 13.3 12 Oeste 22 Sudoeste 0 -- -- 55
2019-01-28 12:00:00 11.2 11 Oeste 23 Oeste 0 -- -- 64
2019-01-28 11:00:00 9.4 15 Oeste 23 Oeste 0 -- -- 71
2019-01-28 10:00:00 8.2 11 Noroeste 21 Oeste 0 -- -- 77
2019-01-28 09:00:00 7.4 7 Noroeste 22 Oeste 0 -- -- 84
2019-01-28 08:00:00 7.4 11 Oeste 19 Noroeste 0 -- -- 86
2019-01-28 07:00:00 7.6 10 Oeste 19 Oeste 0 -- -- 85
2019-01-28 06:00:00 8.2 9 Oeste 17 Oeste 0 -- -- 84
2019-01-28 05:00:00 8.5 12 Oeste 19 Oeste 0 -- -- 82
2019-01-28 04:00:00 8.8 12 Oeste 21 Oeste 0 -- -- 76
2019-01-28 03:00:00 9 10 Oeste 19 Oeste 0 -- -- 72
2019-01-28 02:00:00 9.8 11 Noroeste 24 Oeste 0 -- -- 67
2019-01-28 01:00:00 10.4 10 Noroeste 23 Oeste 0 -- -- 65
2019-01-28 00:00:00 10.6 12 Oeste 23 Oeste 0 -- -- 64
2019-01-27 23:00:00 10.9 11 Oeste 26 Oeste 0 -- -- 62
2019-01-27 22:00:00 11 14 Oeste 29 Oeste 0 -- -- 62
2019-01-27 21:00:00 11 17 Oeste 28 Oeste 0 -- -- 62
2019-01-27 20:00:00 11.3 16 Oeste 31 Oeste 0 -- -- 61
2019-01-27 19:00:00 12 19 Oeste 36 Oeste 0 -- -- 61
2019-01-27 18:00:00 13.1 20 Oeste 46 Oeste 0 -- -- 60
2019-01-27 17:00:00 13.8 20 Oeste 44 Oeste 0 -- -- 59
2019-01-27 16:00:00 13.8 13 Oeste 33 Oeste 0 -- -- 66
2019-01-27 15:00:00 12.5 16 Oeste 37 Oeste 0 -- -- 72
2019-01-27 14:00:00 12.8 17 Oeste 35 Oeste 0 -- -- 68
2019-01-27 13:00:00 12.6 15 Oeste 29 Oeste 0 -- -- 76
2019-01-27 12:00:00 12 10 Oeste 22 Oeste 0 -- -- 81
2019-01-27 11:00:00 12.6 12 Oeste 24 Oeste 0 -- -- 84
2019-01-27 10:00:00 13.3 13 Oeste 27 Sudoeste 0 -- -- 80
2019-01-27 09:00:00 11.8 9 Oeste 15 Oeste 0 -- -- 82
2019-01-27 08:00:00 12.7 14 Oeste 31 Sudoeste 0 -- -- 91
2019-01-27 07:00:00 13.1 18 Oeste 31 Sudoeste 0 -- -- 90
2019-01-27 06:00:00 12.5 15 Sudoeste 31 Sudoeste 0 -- -- 91
2019-01-27 05:00:00 12.3 15 Sudoeste 28 Sudoeste 0 -- -- 91
2019-01-27 04:00:00 12.2 13 Sudoeste 20 Sudoeste 0 -- -- 92
2019-01-27 03:00:00 12.3 12 Sudoeste 20 Sudoeste 0 -- -- 88
2019-01-27 02:00:00 12.5 9 Sudoeste 17 Sudoeste 0 -- -- 85
2019-01-27 01:00:00 12.5 6 Sudoeste 14 Sudoeste 0 -- -- 86
2019-01-27 00:00:00 12.5 8 Sudoeste 17 Sudoeste 0 -- -- 86
2019-01-26 23:00:00 12.3 6 Sudoeste 12 Sudoeste 0 -- -- 89
2019-01-26 22:00:00 12.2 6 Sudoeste 15 Sudoeste 0 -- -- 88
2019-01-26 21:00:00 12.3 4 Sudoeste 12 Sur 0 -- -- 90
2019-01-26 20:00:00 12 6 Sudoeste 14 Oeste 0 -- -- 90
2019-01-26 19:00:00 12.5 8 Oeste 19 Sudoeste 0 -- -- 88
2019-01-26 18:00:00 13.9 11 Oeste 24 Oeste 0 -- -- 80
2019-01-26 17:00:00 15.4 15 Oeste 26 Oeste 0 -- -- 73
2019-01-26 16:00:00 16.8 12 Sudoeste 20 Oeste 0 -- -- 70
2019-01-26 15:00:00 18.1 8 Oeste 14 Oeste 0 -- -- 65
2019-01-26 14:00:00 17.9 3 Sudeste 10 Sudeste 0 -- -- 63
2019-01-26 13:00:00 17 4 Sudeste 13 Sudeste 0 -- -- 68
2019-01-26 12:00:00 14.5 5 Sur 14 Sur 0 -- -- 79
2019-01-26 11:00:00 12.8 6 Sur 13 Sur 0 -- -- 88
2019-01-26 10:00:00 11.9 4 Sur 13 Sur 0 -- -- 93
2019-01-26 09:00:00 11.4 5 Sur 12 Sudoeste 0 -- -- 95
2019-01-26 08:00:00 11.5 5 Sur 14 Sur 0 -- -- 95
2019-01-26 07:00:00 11.2 6 Sur 12 Sur 0 -- -- 94
2019-01-26 06:00:00 10.4 3 Nordeste 6 Nordeste 0 -- -- 65
2019-01-26 05:00:00 11.4 3 Nordeste 8 Nordeste 0 -- -- 59
2019-01-26 04:00:00 12.8 6 Nordeste 8 Nordeste 0 -- -- 53
2019-01-26 03:00:00 13.4 3 Norte 12 Norte 0 -- -- 52
2019-01-26 02:00:00 13.8 3 Nordeste 11 Norte 0 -- -- 50
2019-01-26 01:00:00 14.4 6 Norte 14 Norte 0 -- -- 49
2019-01-26 00:00:00 14.5 7 Norte 14 Norte 0 -- -- 49
2019-01-25 23:00:00 14.1 3 Nordeste 12 Norte 0 -- -- 53
2019-01-25 22:00:00 15.9 9 Norte 20 Norte 0 -- -- 48
2019-01-25 21:00:00 15.8 6 Norte 16 Norte 0 -- -- 51
2019-01-25 20:00:00 15.6 4 Nordeste 15 Este 0 -- -- 54
2019-01-25 19:00:00 16.7 4 Norte 15 Norte 0 -- -- 54
2019-01-25 18:00:00 19 5 Norte 17 Norte 0 -- -- 51
2019-01-25 17:00:00 19.6 8 Norte 18 Norte 0 -- -- 49
2019-01-25 16:00:00 20.3 4 Norte 21 Norte 0 -- -- 44
2019-01-25 15:00:00 19.3 6 Noroeste 13 Oeste 0 -- -- 59
2019-01-25 14:00:00 18.4 4 Noroeste 16 Norte 0 -- -- 55
2019-01-25 13:00:00 16.3 3 Norte 10 Norte 0 -- -- 66
2019-01-25 12:00:00 14.8 3 Norte 9 Norte 0 -- -- 78
2019-01-25 11:00:00 13.4 3 Norte 9 Norte 0 -- -- 86
2019-01-25 10:00:00 12.3 6 Oeste 10 Oeste 0 -- -- 95
2019-01-25 09:00:00 10.9 3 Oeste 6 Oeste 0 -- -- 95
2019-01-25 08:00:00 10.9 0 Calma 5 Oeste 0 -- -- 95
2019-01-25 07:00:00 11.2 0 Calma 5 Oeste 0 -- -- 95
2019-01-25 06:00:00 11.1 0 Calma 8 Oeste 0 -- -- 95
2019-01-25 05:00:00 11.4 2 Oeste 9 Oeste 0 -- -- 95
2019-01-25 04:00:00 12.1 5 Oeste 14 Oeste 0 -- -- 95
2019-01-25 03:00:00 11.9 5 Oeste 9 Oeste 0 -- -- 94
2019-01-25 02:00:00 11.5 3 Oeste 15 Oeste 0 -- -- 92
2019-01-25 01:00:00 12.4 10 Oeste 19 Oeste 0 -- -- 92
2019-01-25 00:00:00 12.5 13 Oeste 20 Sudoeste 0 -- -- 92
2019-01-24 23:00:00 12.5 11 Oeste 19 Oeste 0 -- -- 92
2019-01-24 22:00:00 12.6 13 Oeste 19 Oeste 0 -- -- 93
2019-01-24 21:00:00 12.8 8 Oeste 18 Oeste 0 -- -- 90
2019-01-24 20:00:00 12.8 9 Oeste 16 Oeste 0 -- -- 78
2019-01-24 19:00:00 13.4 9 Oeste 19 Sudoeste 0 -- -- 77
2019-01-24 18:00:00 14.9 10 Oeste 20 Oeste 0 -- -- 65
2019-01-24 17:00:00 15.3 10 Oeste 18 Oeste 0 -- -- 66
2019-01-24 16:00:00 15.2 9 Oeste 17 Noroeste 0 -- -- 65
2019-01-24 15:00:00 16.3 7 Noroeste 19 Oeste 0 -- -- 60
2019-01-24 14:00:00 16.1 9 Noroeste 23 Oeste 0 -- -- 61
2019-01-24 13:00:00 15.3 9 Noroeste 26 Oeste 0 -- -- 69
2019-01-24 12:00:00 14.3 12 Noroeste 24 Oeste 0 -- -- 73
2019-01-24 11:00:00 13.3 13 Oeste 34 Oeste 0 -- -- 79
2019-01-24 10:00:00 12.1 17 Oeste 29 Oeste 0 -- -- 85
2019-01-24 09:00:00 11.4 16 Oeste 30 Oeste 0 -- -- 87
2019-01-24 08:00:00 11.4 17 Oeste 35 Oeste 0 -- -- 86
2019-01-24 07:00:00 11.8 20 Oeste 40 Oeste 0 -- -- 83
2019-01-24 06:00:00 11.8 20 Oeste 35 Oeste 0 -- -- 83
2019-01-24 05:00:00 12.3 18 Oeste 33 Oeste 0 -- -- 80
2019-01-24 04:00:00 12.5 19 Oeste 34 Noroeste 0 -- -- 78
2019-01-24 03:00:00 12.6 18 Oeste 40 Oeste 0 -- -- 80
2019-01-24 02:00:00 12.4 19 Oeste 40 Oeste 0 -- -- 81
2019-01-24 01:00:00 12.6 21 Oeste 41 Oeste 0 -- -- 77
2019-01-24 00:00:00 12.6 19 Oeste 43 Oeste 0 -- -- 78